PWSweather.com
Personal Weather Stations
Station Observations
KPAEXPOR2
Wellington Estates, Export, PA 15632

Wellington EstatesExport, PA 15632

Lat: 40.446, Lon: -79.592

Elevation: 1286

Station Type: PWS1000-TD

http://www.westmorelandweather.com

Latest ConditionsUpdated 2:45:00 PM EST Sunday, Nov 19, 2017
Currently Today's Max Today's Min Today's Average
Temperature 37.8°F3.2°C 57.6°F14.2°C 35.5°F1.9°C 38.7°F3.7°C
Dew Point 21.8°F-5.7°C 50.7°F10.4°C 20.5°F-6.4°C 29.4°F-1.4°C
Winds 4.0 mph ESE6.4 kmh ESE 15.0 mph S24.1 kmh S - 7.4 mph 11.9 kmh
Wind Gusts 7.6 mph12.2 kmh 26.6 mph42.8 kmh - -
Humidity 52% 79% 50% 69%
Pressure 29.91 in1012.9 mb 29.91 in1012.9 mb 29.23 in989.8 mb -
Precipitation - 0.21 in5.3 mm - -
Hour Temp Dew Point Humidity Winds Wind Gusts Pressure Precip Precip Rate Daily Precip Total
02:45 PM 37.8°F3.2°C 21.8°F-5.7°C 52% 4.0 mph ESE6.4 kmh ESE 7.6 mph12.2 kmh 29.91 in1012.9 mb 0.00 in0.0 mm 0.00 in0.0 mm 0.21 in5.3 mm
02:30 PM 37.7°F3.2°C 22.1°F-5.5°C 53% 4.7 mph NE7.6 kmh NE 5.4 mph8.7 kmh 29.89 in1012.2 mb 0.00 in0.0 mm 0.00 in0.0 mm 0.21 in5.3 mm
02:15 PM 37.1°F2.8°C 20.6°F-6.3°C 51% 5.5 mph E8.9 kmh E 9.2 mph14.8 kmh 29.89 in1012.2 mb 0.00 in0.0 mm 0.00 in0.0 mm 0.21 in5.3 mm
02:00 PM 37.1°F2.8°C 20.6°F-6.3°C 51% 4.8 mph WSW7.7 kmh WSW 8.3 mph13.4 kmh 29.89 in1012.2 mb 0.00 in0.0 mm 0.00 in0.0 mm 0.21 in5.3 mm
01:45 PM 37.5°F3.1°C 20.5°F-6.4°C 50% 6.4 mph W10.3 kmh W 13.0 mph20.9 kmh 29.89 in1012.2 mb 0.00 in0.0 mm 0.00 in0.0 mm 0.21 in5.3 mm
01:30 PM 36.9°F2.7°C 20.9°F-6.2°C 52% 6.5 mph S10.5 kmh S 8.3 mph13.4 kmh 29.90 in1012.5 mb 0.00 in0.0 mm 0.00 in0.0 mm 0.21 in5.3 mm
01:15 PM 36.6°F2.6°C 22.4°F-5.3°C 56% 7.5 mph SSW12.1 kmh SSW 17.4 mph28.0 kmh 29.90 in1012.5 mb 0.00 in0.0 mm 0.00 in0.0 mm 0.21 in5.3 mm
01:00 PM 36.0°F2.2°C 23.1°F-4.9°C 59% 6.5 mph SSW10.5 kmh SSW 9.8 mph15.8 kmh 29.90 in1012.5 mb 0.00 in0.0 mm 0.00 in0.0 mm 0.21 in5.3 mm
12:45 PM 35.9°F2.2°C 23.7°F-4.6°C 61% 8.0 mph SSW12.9 kmh SSW 10.7 mph17.2 kmh 29.89 in1012.2 mb 0.00 in0.0 mm 0.00 in0.0 mm 0.21 in5.3 mm
12:30 PM 36.2°F2.3°C 24.1°F-4.4°C 61% 8.8 mph SSW14.2 kmh SSW 13.6 mph21.9 kmh 29.89 in1012.2 mb 0.00 in0.0 mm 0.00 in0.0 mm 0.21 in5.3 mm
12:15 PM 36.8°F2.7°C 24.6°F-4.1°C 61% 6.3 mph S10.1 kmh S 7.6 mph12.2 kmh 29.89 in1012.2 mb 0.00 in0.0 mm 0.00 in0.0 mm 0.21 in5.3 mm
12:00 PM 36.9°F2.7°C 25.1°F-3.8°C 62% 5.2 mph S8.4 kmh S 9.2 mph14.8 kmh 29.89 in1012.2 mb 0.00 in0.0 mm 0.00 in0.0 mm 0.21 in5.3 mm
11:45 AM 36.6°F2.6°C 24.8°F-4.0°C 62% 7.2 mph SW11.6 kmh SW 10.7 mph17.2 kmh 29.89 in1012.2 mb 0.01 in0.3 mm 0.00 in0.0 mm 0.21 in5.3 mm
11:30 AM 36.9°F2.7°C 25.1°F-3.8°C 62% 7.2 mph S11.6 kmh S 11.4 mph18.3 kmh 29.89 in1012.2 mb 0.01 in0.3 mm 0.00 in0.0 mm 0.21 in5.3 mm
11:15 AM 36.9°F2.7°C 25.9°F-3.4°C 64% 5.9 mph S9.5 kmh S 9.8 mph15.8 kmh 29.89 in1012.2 mb 0.01 in0.3 mm 0.00 in0.0 mm 0.21 in5.3 mm
11:00 AM 36.6°F2.6°C 27.0°F-2.8°C 68% 5.1 mph SE8.2 kmh SE 7.6 mph12.2 kmh 29.89 in1012.2 mb 0.01 in0.3 mm 0.01 in0.3 mm 0.21 in5.3 mm
10:45 AM 36.0°F2.2°C 27.2°F-2.7°C 70% 4.7 mph S7.6 kmh S 6.9 mph11.1 kmh 29.89 in1012.2 mb 0.00 in0.0 mm 0.00 in0.0 mm 0.20 in5.1 mm
10:30 AM 35.5°F1.9°C 27.0°F-2.8°C 71% 5.4 mph SSW8.7 kmh SSW 9.2 mph14.8 kmh 29.88 in1011.9 mb 0.00 in0.0 mm 0.00 in0.0 mm 0.20 in5.1 mm
10:15 AM 36.0°F2.2°C 25.8°F-3.4°C 66% 8.5 mph SW13.7 kmh SW 13.6 mph21.9 kmh 29.88 in1011.9 mb 0.00 in0.0 mm 0.00 in0.0 mm 0.20 in5.1 mm
10:00 AM 36.8°F2.7°C 25.7°F-3.5°C 64% 4.2 mph SSW6.8 kmh SSW 7.6 mph12.2 kmh 29.88 in1011.9 mb 0.00 in0.0 mm 0.00 in0.0 mm 0.20 in5.1 mm
09:45 AM 36.8°F2.7°C 25.3°F-3.7°C 63% 5.3 mph SSW8.5 kmh SSW 12.1 mph19.5 kmh 29.87 in1011.5 mb 0.00 in0.0 mm 0.00 in0.0 mm 0.20 in5.1 mm
09:30 AM 36.9°F2.7°C 25.9°F-3.4°C 64% 4.6 mph S7.4 kmh S 8.3 mph13.4 kmh 29.86 in1011.2 mb 0.00 in0.0 mm 0.00 in0.0 mm 0.20 in5.1 mm
09:15 AM 36.8°F2.7°C 27.2°F-2.7°C 68% 4.6 mph ESE7.4 kmh ESE 6.9 mph11.1 kmh 29.85 in1010.8 mb 0.00 in0.0 mm 0.00 in0.0 mm 0.20 in5.1 mm
09:00 AM 36.4°F2.4°C 27.9°F-2.3°C 71% 3.8 mph SE6.1 kmh SE 6.0 mph9.7 kmh 29.85 in1010.8 mb 0.00 in0.0 mm 0.00 in0.0 mm 0.20 in5.1 mm
08:45 AM 36.0°F2.2°C 27.9°F-2.3°C 72% 6.0 mph SSW9.7 kmh SSW 12.1 mph19.5 kmh 29.84 in1010.5 mb 0.00 in0.0 mm 0.00 in0.0 mm 0.20 in5.1 mm
08:30 AM 36.2°F2.3°C 28.4°F-2.0°C 73% 7.3 mph SSW11.7 kmh SSW 11.4 mph18.3 kmh 29.84 in1010.5 mb 0.00 in0.0 mm 0.00 in0.0 mm 0.20 in5.1 mm
08:15 AM 36.4°F2.4°C 29.2°F-1.6°C 75% 5.3 mph S8.5 kmh S 7.6 mph12.2 kmh 29.83 in1010.2 mb 0.00 in0.0 mm 0.00 in0.0 mm 0.20 in5.1 mm
08:00 AM 36.6°F2.6°C 29.4°F-1.4°C 75% 5.2 mph S8.4 kmh S 9.2 mph14.8 kmh 29.81 in1009.5 mb 0.00 in0.0 mm 0.00 in0.0 mm 0.20 in5.1 mm
07:45 AM 36.8°F2.7°C 29.2°F-1.6°C 74% 4.5 mph S7.2 kmh S 6.9 mph11.1 kmh 29.80 in1009.1 mb 0.00 in0.0 mm 0.00 in0.0 mm 0.20 in5.1 mm
07:30 AM 36.9°F2.7°C 29.1°F-1.6°C 73% 7.9 mph SSE12.7 kmh SSE 14.5 mph23.3 kmh 29.78 in1008.5 mb 0.00 in0.0 mm 0.00 in0.0 mm 0.20 in5.1 mm
07:15 AM 37.3°F2.9°C 29.4°F-1.4°C 73% 7.1 mph S11.4 kmh S 9.8 mph15.8 kmh 29.78 in1008.5 mb 0.00 in0.0 mm 0.00 in0.0 mm 0.20 in5.1 mm
07:00 AM 37.5°F3.1°C 29.6°F-1.3°C 73% 7.3 mph SSE11.7 kmh SSE 11.4 mph18.3 kmh 29.77 in1008.1 mb 0.00 in0.0 mm 0.00 in0.0 mm 0.20 in5.1 mm
06:45 AM 37.3°F2.9°C 29.8°F-1.2°C 74% 6.9 mph ESE11.1 kmh ESE 9.2 mph14.8 kmh 29.76 in1007.8 mb 0.00 in0.0 mm 0.00 in0.0 mm 0.20 in5.1 mm
06:30 AM 37.1°F2.8°C 30.3°F-0.9°C 76% 6.3 mph S10.1 kmh S 11.4 mph18.3 kmh 29.75 in1007.5 mb 0.00 in0.0 mm 0.00 in0.0 mm 0.20 in5.1 mm
06:15 AM 36.9°F2.7°C 30.7°F-0.7°C 78% 5.8 mph S9.3 kmh S 7.6 mph12.2 kmh 29.74 in1007.1 mb 0.00 in0.0 mm 0.00 in0.0 mm 0.20 in5.1 mm
06:00 AM 36.8°F2.7°C 30.5°F-0.8°C 78% 6.1 mph SSE9.8 kmh SSE 8.3 mph13.4 kmh 29.73 in1006.8 mb 0.00 in0.0 mm 0.00 in0.0 mm 0.20 in5.1 mm
05:45 AM 36.8°F2.7°C 30.9°F-0.6°C 79% 6.8 mph S10.9 kmh S 14.5 mph23.3 kmh 29.72 in1006.4 mb 0.00 in0.0 mm 0.00 in0.0 mm 0.20 in5.1 mm
05:30 AM 36.6°F2.6°C 30.7°F-0.7°C 79% 6.4 mph SW10.3 kmh SW 14.5 mph23.3 kmh 29.71 in1006.1 mb 0.00 in0.0 mm 0.00 in0.0 mm 0.20 in5.1 mm
05:15 AM 36.4°F2.4°C 30.5°F-0.8°C 79% 8.6 mph WSW13.8 kmh WSW 13.6 mph21.9 kmh 29.70 in1005.8 mb 0.01 in0.3 mm 0.00 in0.0 mm 0.20 in5.1 mm
05:00 AM 36.4°F2.4°C 30.5°F-0.8°C 79% 6.7 mph SSW10.8 kmh SSW 10.7 mph17.2 kmh 29.70 in1005.8 mb 0.02 in0.5 mm 0.00 in0.0 mm 0.20 in5.1 mm
04:45 AM 36.2°F2.3°C 30.3°F-0.9°C 79% 8.3 mph SSW13.4 kmh SSW 11.4 mph18.3 kmh 29.68 in1005.1 mb 0.02 in0.5 mm 0.00 in0.0 mm 0.20 in5.1 mm
04:30 AM 36.2°F2.3°C 30.3°F-0.9°C 79% 9.1 mph S14.6 kmh S 15.2 mph24.5 kmh 29.67 in1004.7 mb 0.02 in0.5 mm 0.00 in0.0 mm 0.20 in5.1 mm
04:15 AM 36.2°F2.3°C 30.0°F-1.1°C 78% 9.3 mph SSW15.0 kmh SSW 15.2 mph24.5 kmh 29.65 in1004.1 mb 0.02 in0.5 mm 0.04 in1.0 mm 0.19 in4.8 mm
04:00 AM 36.4°F2.4°C 30.2°F-1.0°C 78% 6.3 mph S10.1 kmh S 10.7 mph17.2 kmh 29.65 in1004.1 mb 0.01 in0.3 mm 0.00 in0.0 mm 0.18 in4.6 mm
03:45 AM 36.8°F2.7°C 30.5°F-0.8°C 78% 7.0 mph WSW11.3 kmh WSW 11.4 mph18.3 kmh 29.64 in1003.7 mb 0.02 in0.5 mm 0.04 in1.0 mm 0.18 in4.6 mm
03:30 AM 36.8°F2.7°C 30.2°F-1.0°C 77% 6.8 mph SW10.9 kmh SW 9.8 mph15.8 kmh 29.63 in1003.4 mb 0.01 in0.3 mm 0.00 in0.0 mm 0.17 in4.3 mm
03:15 AM 37.1°F2.8°C 30.3°F-0.9°C 76% 7.0 mph S11.3 kmh S 14.5 mph23.3 kmh 29.61 in1002.7 mb 0.02 in0.5 mm 0.00 in0.0 mm 0.17 in4.3 mm
03:00 AM 37.5°F3.1°C 30.6°F-0.8°C 76% 7.6 mph S12.2 kmh S 9.8 mph15.8 kmh 29.59 in1002.0 mb 0.05 in1.3 mm 0.01 in0.3 mm 0.17 in4.3 mm
02:45 AM 38.0°F3.3°C 30.5°F-0.8°C 74% 7.4 mph WSW11.9 kmh WSW 10.7 mph17.2 kmh 29.57 in1001.4 mb 0.04 in1.0 mm 0.00 in0.0 mm 0.15 in3.8 mm
02:30 AM 38.6°F3.7°C 31.0°F-0.6°C 74% 12.1 mph SW19.5 kmh SW 16.8 mph27.0 kmh 29.55 in1000.7 mb 0.04 in1.0 mm 0.08 in2.0 mm 0.15 in3.8 mm
02:15 AM 39.6°F4.2°C 31.7°F-0.2°C 73% 11.9 mph S19.2 kmh S 19.7 mph31.7 kmh 29.53 in1000.0 mb 0.02 in0.5 mm 0.08 in2.0 mm 0.14 in3.6 mm
02:00 AM 41.3°F5.2°C 32.6°F0.3°C 71% 12.7 mph SE20.4 kmh SE 19.7 mph31.7 kmh 29.50 in999.0 mb 0.00 in0.0 mm 0.00 in0.0 mm 0.12 in3.0 mm
01:45 AM 42.5°F5.8°C 33.8°F1.0°C 71% 11.3 mph SE18.2 kmh SE 16.8 mph27.0 kmh 29.46 in997.6 mb 0.02 in0.5 mm 0.00 in0.0 mm 0.12 in3.0 mm
01:30 AM 44.0°F6.7°C 35.2°F1.8°C 71% 11.4 mph S18.3 kmh S 21.3 mph34.3 kmh 29.43 in996.6 mb 0.02 in0.5 mm 0.00 in0.0 mm 0.12 in3.0 mm
01:15 AM 45.8°F7.7°C 36.9°F2.7°C 71% 10.0 mph S16.1 kmh S 13.0 mph20.9 kmh 29.39 in995.3 mb 0.12 in3.0 mm 0.00 in0.0 mm 0.12 in3.0 mm
01:00 AM 47.2°F8.4°C 37.9°F3.3°C 70% 11.2 mph SSW18.0 kmh SSW 15.9 mph25.6 kmh 29.38 in994.9 mb 0.12 in3.0 mm 0.04 in1.0 mm 0.12 in3.0 mm
12:45 AM 50.1°F10.1°C 40.3°F4.6°C 69% 10.6 mph ESE17.1 kmh ESE 17.4 mph28.0 kmh 29.35 in993.9 mb 0.09 in2.3 mm 0.00 in0.0 mm 0.09 in2.3 mm
12:30 AM 56.2°F13.4°C 47.7°F8.7°C 73% 14.4 mph SW23.2 kmh SW 26.6 mph42.8 kmh 29.31 in992.6 mb 0.09 in2.3 mm 0.36 in9.1 mm 0.09 in2.3 mm
12:15 AM 57.6°F14.2°C 50.5°F10.3°C 77% 12.6 mph S20.3 kmh S 16.8 mph27.0 kmh 29.23 in989.8 mb 0.00 in0.0 mm 0.00 in0.0 mm 0.01 in0.3 mm
12:00 AM 57.5°F14.2°C 50.7°F10.4°C 78% 15.0 mph S24.1 kmh S 21.3 mph34.3 kmh 29.25 in990.5 mb 0.01 in0.3 mm 0.00 in0.0 mm 0.01 in0.3 mm